createdAt,value
2024-03-20T00:00:56.300Z,605.00
2024-03-20T00:01:56.311Z,603.00
2024-03-20T00:02:56.336Z,603.00
2024-03-20T00:03:56.358Z,609.00
2024-03-20T00:04:56.390Z,608.00
2024-03-20T00:05:56.419Z,603.00
2024-03-20T00:06:56.434Z,606.00
2024-03-20T00:07:56.438Z,605.00
2024-03-20T00:08:56.465Z,609.00
2024-03-20T00:09:56.488Z,603.00
2024-03-20T00:10:56.516Z,606.00
2024-03-20T00:11:56.521Z,602.00
2024-03-20T00:12:56.551Z,606.00
2024-03-20T00:13:56.567Z,604.00
2024-03-20T00:14:56.589Z,600.00
2024-03-20T00:15:56.605Z,603.00
2024-03-20T00:16:56.624Z,603.00
2024-03-20T00:17:56.673Z,605.00
2024-03-20T00:18:56.670Z,606.00
2024-03-20T00:19:56.691Z,605.00
2024-03-20T00:20:56.713Z,607.00
2024-03-20T00:21:56.716Z,604.00
2024-03-20T00:22:56.731Z,605.00
2024-03-20T00:23:56.757Z,601.00
2024-03-20T00:24:56.772Z,601.00
2024-03-20T00:25:56.797Z,602.00
2024-03-20T00:26:56.814Z,603.00
2024-03-20T00:27:56.833Z,605.00
2024-03-20T00:28:56.854Z,605.00
2024-03-20T00:29:56.871Z,602.00
2024-03-20T00:30:56.882Z,609.00
2024-03-20T00:31:56.899Z,602.00
2024-03-20T00:32:56.917Z,603.00
2024-03-20T00:33:56.939Z,605.00
2024-03-20T00:34:56.964Z,605.00
2024-03-20T00:37:57.019Z,604.00
2024-03-20T00:38:57.026Z,616.00
2024-03-20T00:39:57.058Z,633.00
2024-03-20T00:40:57.082Z,649.00
2024-03-20T00:41:57.077Z,664.00
2024-03-20T00:42:57.116Z,687.00
2024-03-20T00:43:57.142Z,660.00
2024-03-20T00:44:57.149Z,650.00
2024-03-20T00:45:57.201Z,645.00
2024-03-20T00:46:57.191Z,636.00
2024-03-20T00:47:57.215Z,633.00
2024-03-20T00:48:57.240Z,631.00
2024-03-20T00:49:57.265Z,625.00
2024-03-20T00:50:57.290Z,625.00
2024-03-20T00:51:57.316Z,619.00
2024-03-20T00:52:57.332Z,619.00
2024-03-20T00:53:57.345Z,617.00
2024-03-20T00:54:57.367Z,616.00
2024-03-20T00:55:57.389Z,614.00
2024-03-20T00:56:57.409Z,619.00
2024-03-20T00:57:57.427Z,616.00
2024-03-20T00:58:57.451Z,611.00
2024-03-20T00:59:57.472Z,615.00
2024-03-20T01:00:57.497Z,615.00
2024-03-20T01:01:57.524Z,610.00
2024-03-20T01:02:57.549Z,614.00
2024-03-20T01:03:57.574Z,611.00
2024-03-20T01:04:58.511Z,611.00
2024-03-20T01:05:57.627Z,607.00
2024-03-20T01:06:57.657Z,606.00
2024-03-20T01:07:57.665Z,608.00
2024-03-20T01:08:57.691Z,607.00
2024-03-20T01:09:57.713Z,608.00
2024-03-20T01:10:57.757Z,608.00
2024-03-20T01:11:57.759Z,605.00
2024-03-20T01:12:57.783Z,608.00
2024-03-20T01:13:57.809Z,605.00
2024-03-20T01:14:57.833Z,606.00
2024-03-20T01:15:57.860Z,602.00
2024-03-20T01:16:57.874Z,607.00
2024-03-20T01:17:57.903Z,606.00
2024-03-20T01:18:57.924Z,609.00
2024-03-20T01:19:57.954Z,607.00
2024-03-20T01:20:57.983Z,603.00
2024-03-20T01:21:57.996Z,607.00
2024-03-20T01:22:58.020Z,604.00
2024-03-20T01:23:58.086Z,603.00
2024-03-20T01:24:58.065Z,605.00
2024-03-20T01:25:58.091Z,602.00
2024-03-20T01:26:58.121Z,604.00
2024-03-20T01:27:58.150Z,602.00
2024-03-20T01:28:58.176Z,603.00
2024-03-20T01:29:58.182Z,605.00
2024-03-20T01:30:58.257Z,604.00
2024-03-20T01:31:58.228Z,605.00
2024-03-20T01:32:58.295Z,606.00
2024-03-20T01:33:58.278Z,606.00
2024-03-20T01:34:58.303Z,600.00
2024-03-20T01:35:58.330Z,603.00
2024-03-20T01:36:58.353Z,602.00
2024-03-20T01:37:58.385Z,600.00
2024-03-20T01:38:58.402Z,604.00
2024-03-20T01:39:58.436Z,605.00
2024-03-20T01:40:58.452Z,605.00
2024-03-20T01:41:58.482Z,600.00
2024-03-20T01:42:58.510Z,607.00
2024-03-20T01:43:58.523Z,608.00
2024-03-20T01:44:58.549Z,607.00
2024-03-20T01:45:58.593Z,601.00
2024-03-20T01:46:58.613Z,605.00
2024-03-20T01:47:58.642Z,606.00
2024-03-20T01:48:58.662Z,608.00
2024-03-20T01:49:58.696Z,605.00
2024-03-20T01:50:58.729Z,606.00
2024-03-20T01:51:58.744Z,602.00
2024-03-20T01:52:58.778Z,603.00
2024-03-20T01:53:58.806Z,606.00
2024-03-20T01:54:58.824Z,604.00
2024-03-20T01:55:58.851Z,605.00
2024-03-20T01:56:58.879Z,604.00
2024-03-20T01:57:58.923Z,599.00
2024-03-20T01:58:58.977Z,608.00
2024-03-20T01:59:59.042Z,606.00
2024-03-20T02:00:59.107Z,602.00
2024-03-20T02:01:59.157Z,607.00
2024-03-20T02:02:59.217Z,607.00
2024-03-20T02:03:59.271Z,607.00
2024-03-20T02:04:59.327Z,605.00
2024-03-20T02:05:59.372Z,600.00
2024-03-20T02:06:59.429Z,607.00
2024-03-20T02:07:59.486Z,607.00
2024-03-20T02:08:59.540Z,605.00
2024-03-20T02:09:59.600Z,601.00
2024-03-20T02:10:59.661Z,603.00
2024-03-20T02:11:59.710Z,605.00
2024-03-20T02:12:59.763Z,608.00
2024-03-20T02:13:59.828Z,605.00
2024-03-20T02:14:59.897Z,606.00
2024-03-20T02:15:59.951Z,604.00
2024-03-20T02:16:59.999Z,606.00
2024-03-20T02:18:00.053Z,602.00
2024-03-20T02:19:00.111Z,605.00
2024-03-20T02:20:00.262Z,607.00
2024-03-20T02:21:00.226Z,607.00
2024-03-20T02:22:00.299Z,601.00
2024-03-20T02:23:00.345Z,605.00
2024-03-20T02:24:00.400Z,603.00
2024-03-20T02:25:00.453Z,601.00
2024-03-20T02:26:00.508Z,609.00
2024-03-20T02:27:00.587Z,605.00
2024-03-20T02:28:00.636Z,605.00
2024-03-20T02:29:00.663Z,607.00
2024-03-20T02:30:00.720Z,605.00
2024-03-20T02:31:00.777Z,604.00
2024-03-20T02:32:00.825Z,605.00
2024-03-20T02:33:00.901Z,603.00
2024-03-20T02:34:00.958Z,606.00
2024-03-20T02:35:00.990Z,604.00
2024-03-20T02:36:01.067Z,601.00
2024-03-20T02:37:01.081Z,604.00
2024-03-20T02:38:01.120Z,605.00
2024-03-20T02:39:01.179Z,602.00
2024-03-20T02:40:01.225Z,600.00
2024-03-20T02:41:01.279Z,604.00
2024-03-20T02:42:01.321Z,600.00
2024-03-20T02:43:01.358Z,605.00
2024-03-20T02:44:01.401Z,605.00
2024-03-20T02:45:01.451Z,605.00
2024-03-20T02:46:01.481Z,604.00
2024-03-20T02:47:01.514Z,604.00
2024-03-20T02:48:01.560Z,603.00
2024-03-20T02:49:01.610Z,601.00
2024-03-20T02:50:01.709Z,604.00
2024-03-20T02:51:01.691Z,607.00
2024-03-20T02:52:01.728Z,608.00
2024-03-20T02:53:01.773Z,606.00
2024-03-20T02:54:01.833Z,604.00
2024-03-20T02:55:01.862Z,606.00
2024-03-20T02:56:01.910Z,605.00
2024-03-20T02:57:01.917Z,601.00
2024-03-20T02:58:01.956Z,604.00
2024-03-20T02:59:01.984Z,602.00
2024-03-20T03:00:02.022Z,602.00
2024-03-20T03:01:02.069Z,604.00
2024-03-20T03:02:02.099Z,606.00
2024-03-20T03:03:02.128Z,604.00
2024-03-20T03:04:02.170Z,603.00
2024-03-20T03:05:02.194Z,605.00
2024-03-20T03:06:02.242Z,601.00
2024-03-20T03:07:03.043Z,604.00
2024-03-20T03:08:02.296Z,605.00
2024-03-20T03:09:02.326Z,607.00
2024-03-20T03:10:02.383Z,604.00
2024-03-20T03:11:02.397Z,607.00
2024-03-20T03:12:02.421Z,605.00
2024-03-20T03:13:02.454Z,606.00
2024-03-20T03:14:02.493Z,605.00
2024-03-20T03:15:07.775Z,604.00
2024-03-20T03:16:03.540Z,605.00
2024-03-20T03:17:02.556Z,605.00
2024-03-20T03:18:02.583Z,606.00
2024-03-20T03:19:02.598Z,607.00
2024-03-20T03:20:02.622Z,607.00
2024-03-20T03:21:02.644Z,601.00
2024-03-20T03:22:02.672Z,607.00
2024-03-20T03:23:02.691Z,607.00
2024-03-20T03:24:02.718Z,606.00
2024-03-20T03:25:02.758Z,609.00
2024-03-20T03:26:02.760Z,608.00
2024-03-20T03:27:02.774Z,608.00
2024-03-20T03:28:02.799Z,603.00
2024-03-20T03:29:02.819Z,609.00
2024-03-20T03:30:02.854Z,608.00
2024-03-20T03:31:02.877Z,607.00
2024-03-20T03:32:02.886Z,607.00
2024-03-20T03:33:02.916Z,607.00
2024-03-20T03:34:02.927Z,610.00
2024-03-20T03:35:02.952Z,605.00
2024-03-20T03:36:02.976Z,609.00
2024-03-20T03:37:02.992Z,606.00
2024-03-20T03:38:03.017Z,607.00
2024-03-20T03:39:03.032Z,605.00
2024-03-20T03:40:03.073Z,607.00
2024-03-20T03:41:03.084Z,608.00
2024-03-20T03:42:03.088Z,605.00
2024-03-20T03:43:04.060Z,609.00
2024-03-20T03:44:03.129Z,603.00
2024-03-20T03:45:03.146Z,607.00
2024-03-20T03:46:03.171Z,604.00
2024-03-20T03:47:03.192Z,608.00
2024-03-20T03:48:03.201Z,605.00
2024-03-20T03:49:03.229Z,606.00
2024-03-20T03:50:03.248Z,608.00
2024-03-20T03:51:03.279Z,604.00
2024-03-20T03:52:03.306Z,603.00
2024-03-20T03:53:03.316Z,606.00
2024-03-20T03:54:03.335Z,608.00
2024-03-20T03:55:03.433Z,606.00
2024-03-20T03:56:03.378Z,604.00
2024-03-20T03:57:03.399Z,608.00
2024-03-20T03:58:03.414Z,604.00
2024-03-20T03:59:03.440Z,609.00
2024-03-20T04:00:03.472Z,607.00
2024-03-20T04:01:03.513Z,604.00
2024-03-20T04:02:03.507Z,603.00
2024-03-20T04:03:03.536Z,606.00
2024-03-20T04:04:03.540Z,607.00
2024-03-20T04:05:03.560Z,604.00
2024-03-20T04:06:03.587Z,606.00
2024-03-20T04:07:03.612Z,607.00
2024-03-20T04:08:03.631Z,607.00
2024-03-20T04:09:03.667Z,606.00
2024-03-20T04:10:03.699Z,606.00
2024-03-20T04:11:03.704Z,603.00
2024-03-20T04:12:03.742Z,605.00
2024-03-20T04:13:03.761Z,606.00
2024-03-20T04:14:03.794Z,605.00
2024-03-20T04:15:03.830Z,602.00
2024-03-20T04:16:03.879Z,607.00
2024-03-20T04:17:03.891Z,605.00
2024-03-20T04:18:03.934Z,606.00
2024-03-20T04:19:03.951Z,606.00
2024-03-20T04:20:03.996Z,609.00
2024-03-20T04:21:04.112Z,605.00
2024-03-20T04:22:04.054Z,606.00
2024-03-20T04:23:04.078Z,603.00
2024-03-20T04:24:04.112Z,606.00
2024-03-20T04:25:04.154Z,605.00
2024-03-20T04:26:04.171Z,603.00
2024-03-20T04:27:04.198Z,605.00
2024-03-20T04:28:04.231Z,602.00
2024-03-20T04:29:04.272Z,608.00
2024-03-20T04:30:04.309Z,602.00
2024-03-20T04:31:04.352Z,604.00
2024-03-20T04:32:04.388Z,602.00
2024-03-20T04:33:04.415Z,602.00
2024-03-20T04:34:04.467Z,604.00
2024-03-20T04:35:04.508Z,607.00
2024-03-20T04:36:04.537Z,606.00
2024-03-20T04:37:04.590Z,606.00
2024-03-20T04:38:04.608Z,601.00
2024-03-20T04:39:04.651Z,605.00
2024-03-20T04:40:11.912Z,600.00
2024-03-20T04:41:11.911Z,600.00
2024-03-20T04:42:11.912Z,600.00
2024-03-20T04:43:11.903Z,600.00
2024-03-20T04:44:11.906Z,600.00
2024-03-20T04:45:11.902Z,604.00
2024-03-20T04:46:11.910Z,603.00
2024-03-20T04:47:11.890Z,600.00
2024-03-20T04:48:11.882Z,600.00
2024-03-20T04:49:11.896Z,603.00
2024-03-20T04:50:11.895Z,608.00
2024-03-20T04:51:11.894Z,601.00
2024-03-20T04:52:11.898Z,602.00
2024-03-20T04:53:11.892Z,599.00
2024-03-20T04:54:11.888Z,603.00
2024-03-20T04:55:11.885Z,605.00
2024-03-20T04:56:11.887Z,604.00
2024-03-20T04:57:11.890Z,602.00
2024-03-20T04:58:11.910Z,606.00
2024-03-20T04:59:11.895Z,603.00
2024-03-20T05:00:11.886Z,604.00
2024-03-20T05:01:11.887Z,605.00
2024-03-20T05:02:11.892Z,604.00
2024-03-20T05:03:11.893Z,600.00
2024-03-20T05:04:11.889Z,604.00
2024-03-20T05:05:11.892Z,601.00
2024-03-20T05:06:11.889Z,607.00
2024-03-20T05:07:11.888Z,605.00
2024-03-20T05:08:11.889Z,605.00
2024-03-20T05:09:11.897Z,604.00
2024-03-20T05:10:11.886Z,602.00
2024-03-20T05:11:11.884Z,604.00
2024-03-20T05:12:11.883Z,607.00
2024-03-20T05:13:11.884Z,602.00
2024-03-20T05:14:11.880Z,605.00
2024-03-20T05:15:11.888Z,604.00
2024-03-20T05:16:11.887Z,608.00
2024-03-20T05:17:11.890Z,604.00
2024-03-20T05:18:11.892Z,606.00
2024-03-20T05:19:11.900Z,604.00
2024-03-20T05:20:11.900Z,605.00
2024-03-20T05:21:11.905Z,604.00
2024-03-20T05:22:11.896Z,604.00
2024-03-20T05:23:11.894Z,602.00
2024-03-20T05:24:11.889Z,602.00
2024-03-20T05:25:11.892Z,604.00
2024-03-20T05:26:11.901Z,603.00
2024-03-20T05:27:11.893Z,608.00
2024-03-20T05:28:11.905Z,603.00
2024-03-20T05:29:11.920Z,607.00
2024-03-20T05:30:11.951Z,606.00
2024-03-20T05:31:12.000Z,602.00
2024-03-20T05:32:12.044Z,604.00
2024-03-20T05:33:12.075Z,605.00
2024-03-20T05:34:12.120Z,601.00
2024-03-20T05:35:12.157Z,601.00
2024-03-20T05:36:12.215Z,602.00
2024-03-20T05:37:12.242Z,601.00
2024-03-20T05:38:12.278Z,605.00
2024-03-20T05:39:12.317Z,605.00
2024-03-20T05:40:12.372Z,605.00
2024-03-20T05:41:12.412Z,606.00
2024-03-20T05:42:12.432Z,605.00
2024-03-20T05:43:12.476Z,606.00
2024-03-20T05:44:12.498Z,606.00
2024-03-20T05:45:12.561Z,605.00
2024-03-20T05:46:12.562Z,604.00
2024-03-20T05:47:12.608Z,604.00
2024-03-20T05:48:12.630Z,604.00
2024-03-20T05:49:12.695Z,605.00
2024-03-20T05:50:12.702Z,607.00
2024-03-20T05:51:12.747Z,604.00
2024-03-20T05:52:15.551Z,602.00
2024-03-20T05:53:12.774Z,608.00
2024-03-20T05:54:12.780Z,606.00
2024-03-20T05:55:12.774Z,606.00
2024-03-20T05:56:12.772Z,605.00
2024-03-20T05:57:12.764Z,604.00
2024-03-20T05:58:12.760Z,603.00
2024-03-20T05:59:12.763Z,602.00
2024-03-20T06:00:12.754Z,603.00
2024-03-20T06:01:12.756Z,601.00
2024-03-20T06:02:12.754Z,605.00
2024-03-20T06:03:12.750Z,602.00
2024-03-20T06:04:12.747Z,603.00
2024-03-20T06:05:12.747Z,605.00
2024-03-20T06:06:12.771Z,605.00
2024-03-20T06:07:12.740Z,605.00
2024-03-20T06:08:12.738Z,604.00
2024-03-20T06:09:15.560Z,607.00
2024-03-20T06:10:12.734Z,607.00
2024-03-20T06:11:12.733Z,608.00
2024-03-20T06:12:12.752Z,608.00
2024-03-20T06:13:12.744Z,606.00
2024-03-20T06:14:12.737Z,605.00
2024-03-20T06:15:12.747Z,605.00
2024-03-20T06:16:12.744Z,600.00
2024-03-20T06:17:12.762Z,598.00
2024-03-20T06:18:12.762Z,600.00
2024-03-20T06:19:12.779Z,600.00
2024-03-20T06:20:12.814Z,598.00
2024-03-20T06:21:12.837Z,600.00
2024-03-20T06:22:12.875Z,600.00
2024-03-20T06:23:12.897Z,598.00
2024-03-20T06:24:12.926Z,598.00
2024-03-20T06:25:12.955Z,600.00
2024-03-20T06:26:12.993Z,604.00
2024-03-20T06:27:13.020Z,600.00
2024-03-20T06:28:13.044Z,600.00
2024-03-20T06:29:13.073Z,600.00
2024-03-20T06:30:13.099Z,601.00
2024-03-20T06:31:14.014Z,600.00
2024-03-20T06:32:13.165Z,600.00
2024-03-20T06:33:13.193Z,601.00
2024-03-20T06:34:13.195Z,600.00
2024-03-20T06:35:13.254Z,600.00
2024-03-20T06:36:13.224Z,602.00
2024-03-20T06:37:13.312Z,605.00
2024-03-20T06:38:13.980Z,605.00
2024-03-20T06:39:13.247Z,607.00
2024-03-20T06:40:15.766Z,611.00
2024-03-20T06:41:13.263Z,611.00
2024-03-20T06:42:13.261Z,613.00
2024-03-20T06:43:13.267Z,616.00
2024-03-20T06:44:13.266Z,623.00
2024-03-20T06:45:13.288Z,631.00
2024-03-20T06:46:13.285Z,639.00
2024-03-20T06:47:13.296Z,644.00
2024-03-20T06:48:13.289Z,649.00
2024-03-20T06:49:13.292Z,649.00
2024-03-20T06:50:13.292Z,654.00
2024-03-20T06:51:13.282Z,656.00
2024-03-20T06:52:13.298Z,658.00
2024-03-20T06:53:13.284Z,660.00
2024-03-20T06:54:13.268Z,663.00
2024-03-20T06:55:13.272Z,666.00
2024-03-20T06:56:13.273Z,673.00
2024-03-20T06:57:13.264Z,678.00
2024-03-20T06:58:13.262Z,689.00
2024-03-20T06:59:13.236Z,706.00
2024-03-20T07:00:13.234Z,715.00
2024-03-20T07:01:13.244Z,725.00
2024-03-20T07:02:14.069Z,751.00
2024-03-20T07:03:13.220Z,745.00
2024-03-20T07:04:13.214Z,743.00
2024-03-20T07:05:13.213Z,748.00
2024-03-20T07:06:13.219Z,750.00
2024-03-20T07:07:13.206Z,749.00
2024-03-20T07:08:13.200Z,752.00
2024-03-20T07:09:13.203Z,759.00
2024-03-20T07:10:13.188Z,756.00
2024-03-20T07:11:13.202Z,750.00
2024-03-20T07:12:13.196Z,765.00
2024-03-20T07:13:13.182Z,789.00
2024-03-20T07:14:13.151Z,797.00
2024-03-20T07:15:13.158Z,794.00
2024-03-20T07:16:13.147Z,812.00
2024-03-20T07:17:13.129Z,830.00
2024-03-20T07:18:13.128Z,839.00
2024-03-20T07:19:13.117Z,852.00
2024-03-20T07:20:13.112Z,834.00
2024-03-20T07:21:13.095Z,842.00
2024-03-20T07:22:13.094Z,839.00
2024-03-20T07:23:13.081Z,847.00
2024-03-20T07:24:13.068Z,828.00
2024-03-20T07:25:13.048Z,813.00
2024-03-20T07:26:13.056Z,807.00
2024-03-20T07:27:13.061Z,768.00
2024-03-20T07:28:13.115Z,748.00
2024-03-20T07:29:13.133Z,711.00
2024-03-20T07:30:13.164Z,687.00
2024-03-20T07:31:13.211Z,667.00
2024-03-20T07:32:13.238Z,649.00
2024-03-20T07:33:13.228Z,637.00
2024-03-20T07:34:14.078Z,627.00
2024-03-20T07:35:13.321Z,609.00
2024-03-20T07:36:13.372Z,602.00
2024-03-20T07:37:13.438Z,600.00
2024-03-20T07:38:13.514Z,600.00
2024-03-20T07:39:13.589Z,599.00
2024-03-20T07:40:13.736Z,601.00
2024-03-20T07:41:13.773Z,600.00
2024-03-20T07:42:14.610Z,600.00
2024-03-20T07:43:13.894Z,602.00
2024-03-20T07:44:13.946Z,602.00
2024-03-20T07:45:13.963Z,601.00
2024-03-20T07:46:13.966Z,609.00
2024-03-20T07:47:13.991Z,611.00
2024-03-20T07:48:14.011Z,624.00
2024-03-20T07:49:14.034Z,625.00
2024-03-20T07:50:14.010Z,628.00
2024-03-20T07:51:14.013Z,635.00
2024-03-20T07:52:14.010Z,648.00
2024-03-20T07:53:14.004Z,694.00
2024-03-20T07:54:13.977Z,730.00
2024-03-20T07:55:13.978Z,745.00
2024-03-20T07:56:13.980Z,778.00
2024-03-20T07:57:13.978Z,808.00
2024-03-20T07:58:13.960Z,833.00
2024-03-20T07:59:14.906Z,834.00
2024-03-20T08:00:13.931Z,843.00
2024-03-20T08:01:13.869Z,864.00
2024-03-20T08:02:13.851Z,907.00
2024-03-20T08:03:13.865Z,962.00
2024-03-20T08:04:13.801Z,840.00
2024-03-20T08:05:13.784Z,867.00
2024-03-20T08:06:13.784Z,920.00
2024-03-20T08:07:13.731Z,999.00
2024-03-20T08:08:14.598Z,1121.00
2024-03-20T08:09:13.673Z,1157.00
2024-03-20T08:10:14.112Z,1174.00
2024-03-20T08:11:13.693Z,1194.00
2024-03-20T08:12:13.646Z,1217.00
2024-03-20T08:13:13.692Z,1228.00
2024-03-20T08:14:13.741Z,1232.00
2024-03-20T08:15:13.803Z,1217.00
2024-03-20T08:16:13.782Z,1214.00
2024-03-20T08:17:13.808Z,1188.00
2024-03-20T08:18:13.790Z,1178.00
2024-03-20T08:19:13.777Z,1155.00
2024-03-20T08:20:13.929Z,1149.00
2024-03-20T08:21:13.769Z,1129.00
2024-03-20T08:22:13.754Z,1114.00
2024-03-20T08:23:14.617Z,1110.00
2024-03-20T08:24:15.004Z,1111.00
2024-03-20T08:25:13.708Z,1121.00
2024-03-20T08:26:13.721Z,1138.00
2024-03-20T08:27:13.793Z,1143.00
2024-03-20T08:28:13.813Z,1165.00
2024-03-20T08:29:13.843Z,1181.00
2024-03-20T08:30:13.884Z,1200.00
2024-03-20T08:31:14.710Z,1208.00
2024-03-20T08:32:13.953Z,1233.00
2024-03-20T08:33:14.000Z,1255.00
2024-03-20T08:34:14.048Z,1276.00
2024-03-20T08:35:14.607Z,1292.00
2024-03-20T08:36:14.129Z,1307.00
2024-03-20T08:37:14.198Z,1325.00
2024-03-20T08:38:14.195Z,1346.00
2024-03-20T08:39:14.249Z,1365.00
2024-03-20T08:40:14.250Z,1390.00
2024-03-20T08:41:14.304Z,1402.00
2024-03-20T08:42:14.461Z,1418.00
2024-03-20T08:43:20.022Z,1433.00
2024-03-20T08:44:15.369Z,1435.00
2024-03-20T08:45:14.320Z,1441.00
2024-03-20T08:46:14.245Z,1456.00
2024-03-20T08:47:14.217Z,1483.00
2024-03-20T08:48:14.182Z,1539.00
2024-03-20T08:49:14.151Z,1553.00
2024-03-20T08:50:14.208Z,1576.00
2024-03-20T08:51:14.086Z,1593.00
2024-03-20T08:52:14.120Z,1610.00
2024-03-20T08:53:14.036Z,1631.00
2024-03-20T08:54:14.057Z,1657.00
2024-03-20T08:55:14.097Z,1675.00
2024-03-20T08:56:14.098Z,1694.00
2024-03-20T08:57:14.118Z,1711.00
2024-03-20T08:58:15.130Z,1737.00
2024-03-20T08:59:14.151Z,1747.00
2024-03-20T09:00:15.125Z,1767.00
2024-03-20T09:01:14.656Z,1792.00
2024-03-20T09:02:14.211Z,1803.00
2024-03-20T09:03:14.790Z,1821.00
2024-03-20T09:04:14.232Z,1835.00
2024-03-20T09:05:16.033Z,1854.00
2024-03-20T09:06:14.270Z,1874.00
2024-03-20T09:07:14.289Z,1883.00
2024-03-20T09:08:14.295Z,1894.00
2024-03-20T09:09:14.316Z,1911.00
2024-03-20T09:10:14.349Z,1924.00
2024-03-20T09:11:14.454Z,1943.00
2024-03-20T09:12:14.385Z,1951.00
2024-03-20T09:13:14.395Z,1966.00
2024-03-20T09:14:15.060Z,1975.00
2024-03-20T09:15:14.420Z,1951.00
2024-03-20T09:16:14.513Z,1914.00
2024-03-20T09:17:14.624Z,1837.00
2024-03-20T09:18:14.532Z,1738.00
2024-03-20T09:19:14.562Z,1640.00
2024-03-20T09:20:14.563Z,1540.00
2024-03-20T09:21:14.643Z,1441.00
2024-03-20T09:22:15.167Z,1354.00
2024-03-20T09:23:14.627Z,1277.00
2024-03-20T09:24:15.137Z,1212.00
2024-03-20T09:25:14.606Z,1145.00
2024-03-20T09:26:14.596Z,1086.00
2024-03-20T09:27:14.584Z,1030.00
2024-03-20T09:28:14.597Z,990.00
2024-03-20T09:29:14.555Z,958.00
2024-03-20T09:30:14.552Z,942.00
2024-03-20T09:31:14.567Z,920.00
2024-03-20T09:32:15.127Z,918.00
2024-03-20T09:33:14.610Z,903.00
2024-03-20T09:34:14.692Z,915.00
2024-03-20T09:35:14.647Z,912.00
2024-03-20T09:36:14.649Z,932.00
2024-03-20T09:37:14.688Z,939.00
2024-03-20T09:38:14.722Z,967.00
2024-03-20T09:39:15.630Z,976.00
2024-03-20T09:40:15.632Z,1004.00
2024-03-20T09:41:14.832Z,1022.00
2024-03-20T09:42:14.887Z,1049.00
2024-03-20T09:43:18.430Z,1050.00
2024-03-20T09:44:14.834Z,1052.00
2024-03-20T09:45:14.798Z,1061.00
2024-03-20T09:46:14.796Z,1085.00
2024-03-20T09:47:14.757Z,1126.00
2024-03-20T09:48:21.640Z,1184.00
2024-03-20T09:49:15.718Z,1055.00
2024-03-20T09:50:14.693Z,1079.00
2024-03-20T09:51:14.663Z,1126.00
2024-03-20T09:52:14.652Z,1203.00
2024-03-20T09:53:14.609Z,1312.00
2024-03-20T09:54:15.132Z,1349.00
2024-03-20T09:55:14.564Z,1366.00
2024-03-20T09:56:14.570Z,1393.00
2024-03-20T09:57:14.506Z,1411.00
2024-03-20T09:58:14.490Z,1434.00
2024-03-20T09:59:14.439Z,1460.00
2024-03-20T10:00:14.439Z,1471.00
2024-03-20T10:01:14.469Z,1487.00
2024-03-20T10:02:14.496Z,1503.00
2024-03-20T10:03:14.512Z,1508.00
2024-03-20T10:04:14.546Z,1520.00
2024-03-20T10:05:14.550Z,1536.00
2024-03-20T10:06:14.576Z,1548.00
2024-03-20T10:07:14.598Z,1562.00
2024-03-20T10:08:14.608Z,1570.00
2024-03-20T10:09:14.630Z,1585.00
2024-03-20T10:10:14.685Z,1603.00
2024-03-20T10:11:14.691Z,1614.00
2024-03-20T10:12:15.669Z,1626.00
2024-03-20T10:13:14.693Z,1635.00
2024-03-20T10:14:14.713Z,1646.00
2024-03-20T10:15:14.728Z,1647.00
2024-03-20T10:16:22.611Z,1656.00
2024-03-20T10:17:15.729Z,1657.00
2024-03-20T10:18:14.696Z,1661.00
2024-03-20T10:19:14.668Z,1667.00
2024-03-20T10:20:14.639Z,1681.00
2024-03-20T10:21:14.613Z,1703.00
2024-03-20T10:22:14.595Z,1714.00
2024-03-20T10:23:14.568Z,1705.00
2024-03-20T10:24:14.554Z,1699.00
2024-03-20T10:25:14.527Z,1706.00
2024-03-20T10:26:14.510Z,1723.00
2024-03-20T10:27:14.484Z,1734.00
2024-03-20T10:28:14.450Z,1737.00
2024-03-20T10:29:20.252Z,1754.00
2024-03-20T10:30:24.898Z,1755.00
2024-03-20T10:31:26.391Z,1756.00
2024-03-20T10:32:15.357Z,1758.00
2024-03-20T10:33:14.327Z,1772.00
2024-03-20T10:34:15.074Z,1794.00
2024-03-20T10:35:14.277Z,1829.00
2024-03-20T10:36:14.243Z,1905.00
2024-03-20T10:37:14.216Z,1926.00
2024-03-20T10:38:14.199Z,1942.00
2024-03-20T10:39:21.924Z,1969.00
2024-03-20T10:40:15.145Z,1971.00
2024-03-20T10:41:14.105Z,1977.00
2024-03-20T10:42:14.083Z,1987.00
2024-03-20T10:43:14.051Z,2011.00
2024-03-20T10:44:14.034Z,2062.00
2024-03-20T10:45:14.026Z,2079.00
2024-03-20T10:46:13.979Z,2086.00
2024-03-20T10:47:14.181Z,2088.00
2024-03-20T10:48:13.933Z,2096.00
2024-03-20T10:49:13.914Z,2107.00
2024-03-20T10:50:13.870Z,2105.00
2024-03-20T10:51:13.835Z,2108.00
2024-03-20T10:52:13.809Z,2129.00
2024-03-20T10:53:13.769Z,2136.00
2024-03-20T10:54:13.730Z,2146.00
2024-03-20T10:55:13.694Z,2165.00
2024-03-20T10:56:13.671Z,2180.00
2024-03-20T10:57:13.636Z,2184.00
2024-03-20T10:58:13.590Z,2189.00
2024-03-20T10:59:13.560Z,2207.00
2024-03-20T11:00:13.561Z,2248.00
2024-03-20T11:01:14.159Z,2269.00
2024-03-20T11:02:13.472Z,2287.00
2024-03-20T11:03:13.429Z,2305.00
2024-03-20T11:04:13.402Z,2332.00
2024-03-20T11:05:13.355Z,2352.00
2024-03-20T11:06:13.338Z,2366.00
2024-03-20T11:07:13.322Z,2363.00
2024-03-20T11:08:13.312Z,2377.00
2024-03-20T11:09:13.302Z,2393.00
2024-03-20T11:10:13.290Z,2377.00
2024-03-20T11:11:15.088Z,2389.00
2024-03-20T11:12:14.244Z,2389.00
2024-03-20T11:13:13.216Z,2385.00
2024-03-20T11:14:14.176Z,2344.00
2024-03-20T11:15:13.144Z,2357.00
2024-03-20T11:16:13.103Z,2355.00
2024-03-20T11:17:13.082Z,2345.00
2024-03-20T11:18:13.054Z,2337.00
2024-03-20T11:19:13.776Z,2319.00
2024-03-20T11:20:12.962Z,2316.00
2024-03-20T11:21:12.966Z,2306.00
2024-03-20T11:22:15.084Z,2303.00
2024-03-20T11:23:12.889Z,2308.00
2024-03-20T11:24:12.875Z,2297.00
2024-03-20T11:25:12.848Z,2295.00
2024-03-20T11:26:12.797Z,2293.00
2024-03-20T11:27:12.772Z,2287.00
2024-03-20T11:28:12.822Z,2279.00
2024-03-20T11:29:12.717Z,2275.00
2024-03-20T11:30:12.756Z,2266.00
2024-03-20T11:31:12.670Z,2263.00
2024-03-20T11:32:12.640Z,2256.00
2024-03-20T11:33:12.609Z,2247.00
2024-03-20T11:34:12.585Z,2243.00
2024-03-20T11:35:12.681Z,2239.00
2024-03-20T11:36:13.098Z,2229.00
2024-03-20T11:37:13.167Z,2223.00
2024-03-20T11:38:12.502Z,2222.00
2024-03-20T11:39:12.468Z,2212.00
2024-03-20T11:40:12.457Z,2205.00
2024-03-20T11:41:12.414Z,2201.00
2024-03-20T11:42:12.388Z,2197.00
2024-03-20T11:43:12.383Z,2180.00
2024-03-20T11:44:15.669Z,2175.00
2024-03-20T11:45:12.335Z,2175.00
2024-03-20T11:46:12.311Z,2176.00
2024-03-20T11:47:16.872Z,2177.00
2024-03-20T11:48:13.277Z,2176.00
2024-03-20T11:49:13.180Z,2176.00
2024-03-20T11:50:12.239Z,2176.00
2024-03-20T11:51:13.177Z,2169.00
2024-03-20T11:52:13.176Z,2166.00
2024-03-20T11:53:12.165Z,2164.00
2024-03-20T11:54:12.140Z,2146.00
2024-03-20T11:55:12.122Z,2148.00
2024-03-20T11:56:12.100Z,2140.00
2024-03-20T11:57:12.144Z,2131.00
2024-03-20T11:58:12.193Z,2129.00
2024-03-20T11:59:12.248Z,2113.00
2024-03-20T12:00:12.290Z,2113.00
2024-03-20T12:01:12.336Z,2103.00
2024-03-20T12:02:12.396Z,2100.00
2024-03-20T12:03:12.426Z,2101.00
2024-03-20T12:04:12.500Z,2081.00
2024-03-20T12:05:12.551Z,2071.00
2024-03-20T12:06:12.572Z,2077.00
2024-03-20T12:07:12.632Z,2068.00
2024-03-20T12:08:12.677Z,2058.00
2024-03-20T12:09:12.733Z,2052.00
2024-03-20T12:10:12.784Z,2045.00
2024-03-20T12:11:12.902Z,2036.00
2024-03-20T12:12:12.985Z,2030.00
2024-03-20T12:13:12.945Z,2026.00
2024-03-20T12:14:13.080Z,2013.00
2024-03-20T12:15:13.085Z,2011.00
2024-03-20T12:16:13.183Z,1999.00
2024-03-20T12:17:13.158Z,1994.00
2024-03-20T12:18:13.212Z,1990.00
2024-03-20T12:19:13.258Z,1988.00
2024-03-20T12:20:13.323Z,1979.00
2024-03-20T12:21:13.357Z,1974.00
2024-03-20T12:22:13.406Z,1968.00
2024-03-20T12:23:13.489Z,1958.00